Time;durP1;ratioP1;P1;durP2;ratioP2;P2;SDS_P1;SDS_P2;PMS_P1;PMS_P2;Temp;Humidity;BMP_temperature;BMP_pressure;BME280_temperature;BME280_humidity;BME280_pressure;Samples;Min_cycle;Max_cycle;Signal;HPM_P1;HPM_P2
2022/07/30 00:01:20;;;;;;;4.33;1.57;;;15.20;99.90;;;;;;5093104;28;20306;-71
2022/07/30 00:03:48;;;;;;;4.97;1.80;;;15.30;99.90;;;;;;5094093;28;20186;-71
2022/07/30 00:06:15;;;;;;;2.33;0.97;;;15.30;99.90;;;;;;5098793;28;20155;-71
2022/07/30 00:08:42;;;;;;;4.00;1.50;;;15.90;99.90;;;;;;5110736;28;20244;-70
2022/07/30 00:11:10;;;;;;;3.90;1.40;;;16.10;99.90;;;;;;5093856;28;20202;-70
2022/07/30 00:13:38;;;;;;;3.10;1.17;;;16.80;99.90;;;;;;5093672;28;20218;-70
2022/07/30 00:16:06;;;;;;;3.63;1.40;;;17.30;99.90;;;;;;5093595;28;20734;-72
2022/07/30 00:18:34;;;;;;;3.77;1.20;;;17.30;99.90;;;;;;5093657;28;20189;-70
2022/07/30 00:21:01;;;;;;;1.97;1.00;;;17.20;99.90;;;;;;5093675;28;20172;-71
2022/07/30 00:23:28;;;;;;;3.30;1.33;;;17.30;99.90;;;;;;5093589;28;20637;-71
2022/07/30 00:25:56;;;;;;;3.33;1.10;;;17.70;99.90;;;;;;5094688;28;20229;-71
2022/07/30 00:28:23;;;;;;;3.40;1.43;;;17.90;99.90;;;;;;5093472;28;20181;-71
2022/07/30 00:30:50;;;;;;;3.63;1.10;;;18.20;99.90;;;;;;5100194;28;20636;-71
2022/07/30 00:33:18;;;;;;;6.30;1.17;;;18.50;99.90;;;;;;5100890;28;20227;-71
2022/07/30 00:35:45;;;;;;;2.50;1.20;;;18.70;99.90;;;;;;5104312;28;20238;-72
2022/07/30 00:38:12;;;;;;;3.43;0.83;;;18.90;99.90;;;;;;5109920;28;20653;-71
2022/07/30 00:40:41;;;;;;;4.67;1.37;;;19.00;99.90;;;;;;5119942;27;20169;-72
2022/07/30 00:43:13;;;;;;;6.07;1.10;;;19.10;99.90;;;;;;5128617;27;20178;-71
2022/07/30 00:45:40;;;;;;;2.67;1.07;;;19.30;99.90;;;;;;5094484;28;20183;-70
2022/07/30 00:48:08;;;;;;;6.30;0.90;;;19.30;99.90;;;;;;5113453;28;20171;-71
2022/07/30 00:50:35;;;;;;;4.07;1.00;;;19.40;99.90;;;;;;5113534;28;20175;-71
2022/07/30 00:53:03;;;;;;;5.53;1.30;;;19.50;99.90;;;;;;5095165;28;20656;-70
2022/07/30 00:55:31;;;;;;;6.03;1.40;;;19.70;98.20;;;;;;5097493;28;20262;-71
2022/07/30 00:57:58;;;;;;;4.97;1.23;;;19.70;99.50;;;;;;5092819;28;20218;-72
2022/07/30 01:00:26;;;;;;;2.13;0.80;;;19.70;98.50;;;;;;5092708;28;20183;-72
2022/07/30 01:02:53;;;;;;;3.03;1.07;;;19.80;98.20;;;;;;5092887;28;20182;-72
2022/07/30 01:05:21;;;;;;;2.03;1.00;;;19.50;96.40;;;;;;5106312;28;20186;-72
2022/07/30 01:07:50;;;;;;;2.80;1.00;;;19.70;98.00;;;;;;5113048;28;20209;-72
2022/07/30 01:10:18;;;;;;;4.40;1.10;;;20.20;93.00;;;;;;5113185;28;20683;-72
2022/07/30 01:12:46;;;;;;;3.43;0.77;;;20.50;98.90;;;;;;5111476;28;20196;-71
2022/07/30 01:15:14;;;;;;;3.07;1.00;;;20.90;92.40;;;;;;5100723;28;20185;-72
2022/07/30 01:17:41;;;;;;;1.70;0.83;;;20.80;85.90;;;;;;5076788;28;20215;-72
2022/07/30 01:20:14;;;;;;;4.60;0.93;;;20.70;84.60;;;;;;5084861;28;20236;-71
2022/07/30 01:23:00;;;;;;;1.90;0.70;;;20.70;80.90;;;;;;5092435;28;20186;-73
2022/07/30 01:25:53;;;;;;;2.23;0.80;;;21.00;81.40;;;;;;5096743;28;20553;-72
2022/07/30 01:28:26;;;;;;;4.87;0.97;;;21.10;77.90;;;;;;5092351;28;20659;-73
2022/07/30 01:30:56;;;;;;;3.67;0.70;;;21.30;70.20;;;;;;5092396;28;20298;-70
2022/07/30 01:33:24;;;;;;;6.43;0.90;;;21.10;73.90;;;;;;5092494;28;20175;-72
2022/07/30 01:35:53;;;;;;;2.70;0.83;;;21.40;72.20;;;;;;5108808;28;20193;-72
2022/07/30 01:38:22;;;;;;;2.70;0.70;;;21.50;68.50;;;;;;5071962;28;20176;-72
2022/07/30 01:40:54;;;;;;;2.73;0.90;;;21.50;67.40;;;;;;5072007;28;20180;-71
2022/07/30 01:43:25;;;;;;;5.17;0.97;;;21.40;67.00;;;;;;5071904;28;20203;-70
2022/07/30 01:45:53;;;;;;;3.67;0.83;;;21.80;67.10;;;;;;5105837;28;20541;-71
2022/07/30 01:48:24;;;;;;;3.63;1.00;;;21.90;61.10;;;;;;5112385;28;20177;-70
2022/07/30 01:50:54;;;;;;;3.73;0.73;;;21.40;64.90;;;;;;5094202;28;20645;-72
2022/07/30 01:53:25;;;;;;;3.20;1.10;;;21.50;63.70;;;;;;5112450;28;20233;-72
2022/07/30 01:55:55;;;;;;;2.53;0.50;;;21.50;70.00;;;;;;5077161;28;20239;-71
2022/07/30 01:58:26;;;;;;;1.57;0.90;;;21.60;59.60;;;;;;5100783;28;20221;-71
2022/07/30 02:00:57;;;;;;;5.50;1.10;;;21.60;63.50;;;;;;5103182;28;20530;-71
2022/07/30 02:03:25;;;;;;;3.93;1.10;;;21.80;59.60;;;;;;5101575;28;20511;-72
2022/07/30 02:06:01;;;;;;;2.30;0.93;;;21.50;60.00;;;;;;5105550;28;20266;-71
2022/07/30 02:08:35;;;;;;;4.20;0.80;;;21.50;62.20;;;;;;5093735;28;20292;-72
2022/07/30 02:11:08;;;;;;;2.80;0.90;;;22.10;57.20;;;;;;5112069;28;20683;-71
2022/07/30 02:13:46;;;;;;;2.90;1.23;;;22.00;58.40;;;;;;5093863;28;20610;-72
2022/07/30 02:16:45;;;;;;;1.63;0.80;;;21.90;60.00;;;;;;5111136;28;20262;-71
2022/07/30 02:19:17;;;;;;;3.00;0.90;;;21.50;59.80;;;;;;5096179;28;20194;-72
2022/07/30 02:21:48;;;;;;;4.30;1.10;;;21.60;59.70;;;;;;5089794;28;20719;-72
2022/07/30 02:24:23;;;;;;;3.13;0.90;;;21.50;59.00;;;;;;5110867;28;20187;-72
2022/07/30 02:26:55;;;;;;;3.27;1.00;;;21.80;63.30;;;;;;5093798;28;20178;-70
2022/07/30 02:29:24;;;;;;;2.17;0.87;;;22.00;59.80;;;;;;5111923;28;20178;-71
2022/07/30 02:31:53;;;;;;;4.20;0.97;;;21.70;54.70;;;;;;5111343;28;20219;-71
2022/07/30 02:34:23;;;;;;;3.33;0.70;;;22.20;55.10;;;;;;5108431;28;20187;-71
2022/07/30 02:36:52;;;;;;;2.70;0.53;;;22.20;54.00;;;;;;5091399;28;20581;-72
2022/07/30 02:39:21;;;;;;;3.20;0.60;;;21.10;49.70;;;;;;5091515;28;20227;-71
2022/07/30 02:41:49;;;;;;;4.53;0.90;;;21.10;51.20;;;;;;5091368;28;20219;-71
2022/07/30 02:44:19;;;;;;;3.33;0.97;;;21.20;52.10;;;;;;5097954;28;20189;-70
2022/07/30 02:46:48;;;;;;;2.93;0.70;;;21.70;48.60;;;;;;5100086;28;20176;-71
2022/07/30 02:49:18;;;;;;;1.27;0.70;;;21.80;48.80;;;;;;5101174;28;20170;-72
2022/07/30 02:51:48;;;;;;;7.73;1.17;;;22.00;48.90;;;;;;5101966;28;20194;-71
2022/07/30 02:54:19;;;;;;;3.80;0.70;;;21.60;49.10;;;;;;5098179;28;20196;-72
2022/07/30 02:56:49;;;;;;;1.77;0.57;;;21.90;49.90;;;;;;5091221;28;20249;-73
2022/07/30 02:59:18;;;;;;;3.43;0.97;;;22.00;49.10;;;;;;5091407;28;20172;-73
2022/07/30 03:01:48;;;;;;;4.23;1.00;;;22.00;48.20;;;;;;5091190;28;20213;-72
2022/07/30 03:04:19;;;;;;;3.70;1.00;;;21.30;48.10;;;;;;5090948;28;20173;-73
2022/07/30 03:06:48;;;;;;;4.03;0.60;;;20.70;50.60;;;;;;5111042;28;20199;-72
2022/07/30 03:09:17;;;;;;;1.97;0.70;;;20.90;50.80;;;;;;5111557;28;20174;-73
2022/07/30 03:11:45;;;;;;;2.10;0.90;;;21.30;54.50;;;;;;5111166;28;20274;-72
2022/07/30 03:14:12;;;;;;;3.30;1.00;;;21.70;52.70;;;;;;5093091;28;20554;-72
2022/07/30 03:16:42;;;;;;;3.63;0.90;;;21.40;50.40;;;;;;5073922;28;20214;-72
2022/07/30 03:19:10;;;;;;;7.27;1.87;;;21.40;48.80;;;;;;5091091;28;20706;-71
2022/07/30 03:21:39;;;;;;;2.83;1.03;;;21.40;50.40;;;;;;5106928;28;20183;-71
2022/07/30 03:24:08;;;;;;;2.47;0.90;;;21.50;48.00;;;;;;5111205;28;20181;-71
2022/07/30 03:26:38;;;;;;;3.03;0.93;;;21.70;48.40;;;;;;5074722;28;20602;-71
2022/07/30 03:29:08;;;;;;;2.20;0.90;;;21.90;49.40;;;;;;5072831;28;20213;-70
2022/07/30 03:31:37;;;;;;;4.87;1.17;;;21.70;48.80;;;;;;5072704;28;20227;-71
2022/07/30 03:34:09;;;;;;;4.00;0.80;;;21.40;49.50;;;;;;5091049;28;20180;-71
2022/07/30 03:36:39;;;;;;;4.83;1.30;;;21.30;49.10;;;;;;5110441;28;20210;-71
2022/07/30 03:39:07;;;;;;;4.77;2.03;;;21.30;47.90;;;;;;5115131;28;20506;-70
2022/07/30 03:41:36;;;;;;;7.33;1.07;;;20.90;49.20;;;;;;5114766;28;20189;-72
2022/07/30 03:44:05;;;;;;;1.83;0.80;;;20.80;49.00;;;;;;5114837;28;20513;-72
2022/07/30 03:46:34;;;;;;;2.30;1.17;;;20.30;50.10;;;;;;5097420;28;20268;-71
2022/07/30 03:49:04;;;;;;;3.30;1.13;;;20.00;50.80;;;;;;5106154;28;20178;-71
2022/07/30 03:51:34;;;;;;;2.40;0.73;;;19.70;54.60;;;;;;5114868;28;20174;-72
2022/07/30 03:54:04;;;;;;;4.07;1.20;;;19.60;55.10;;;;;;5114746;28;20173;-72
2022/07/30 03:56:32;;;;;;;1.53;0.77;;;19.90;54.40;;;;;;5097080;28;20280;-72
2022/07/30 03:59:00;;;;;;;2.07;0.60;;;20.00;55.90;;;;;;5094256;28;20167;-71
2022/07/30 04:01:28;;;;;;;5.13;0.70;;;20.30;55.60;;;;;;5098248;28;20258;-72
2022/07/30 04:03:55;;;;;;;3.77;0.80;;;20.50;54.50;;;;;;5093826;28;20177;-72
2022/07/30 04:06:23;;;;;;;3.33;0.90;;;20.40;52.90;;;;;;5075658;28;20205;-72
2022/07/30 04:08:50;;;;;;;1.43;0.70;;;19.30;56.70;;;;;;5093876;28;20258;-72
2022/07/30 04:11:17;;;;;;;4.37;0.90;;;19.30;62.90;;;;;;5096920;28;20179;-71
2022/07/30 04:13:45;;;;;;;2.07;0.70;;;19.50;57.50;;;;;;5113861;28;20191;-71
2022/07/30 04:16:38;;;;;;;3.57;1.00;;;19.40;55.30;;;;;;5107787;28;20567;-72
2022/07/30 04:19:10;;;;;;;1.70;0.83;;;19.60;57.60;;;;;;5093289;28;20201;-72
2022/07/30 04:21:40;;;;;;;3.00;0.93;;;19.40;56.80;;;;;;5099488;28;20188;-71
2022/07/30 04:24:10;;;;;;;2.40;0.80;;;20.00;57.30;;;;;;5095243;28;20269;-72
2022/07/30 04:26:38;;;;;;;1.77;0.57;;;20.00;56.20;;;;;;5114039;28;20185;-72
2022/07/30 04:29:08;;;;;;;2.00;0.90;;;19.60;57.30;;;;;;5113816;28;20586;-72
2022/07/30 04:31:36;;;;;;;3.07;0.90;;;19.60;56.40;;;;;;5107751;28;20229;-72
2022/07/30 04:34:05;;;;;;;4.63;1.10;;;19.40;59.20;;;;;;5093273;28;20183;-72
2022/07/30 04:36:34;;;;;;;2.93;1.10;;;19.40;61.10;;;;;;5093983;28;20315;-71
2022/07/30 04:39:02;;;;;;;3.20;0.83;;;19.20;58.20;;;;;;5100146;28;20180;-72
2022/07/30 04:41:30;;;;;;;2.77;0.97;;;19.40;62.10;;;;;;5113678;28;20687;-72
2022/07/30 04:43:57;;;;;;;1.80;0.80;;;19.10;65.40;;;;;;5100810;28;20176;-72
2022/07/30 04:46:24;;;;;;;1.33;0.80;;;19.50;62.70;;;;;;5092980;28;20176;-72
2022/07/30 04:48:52;;;;;;;4.43;0.93;;;19.60;60.00;;;;;;5093109;28;20176;-71
2022/07/30 04:51:37;;;;;;;3.73;0.90;;;19.50;62.80;;;;;;5093156;28;20182;-72
2022/07/30 04:54:08;;;;;;;2.30;0.80;;;19.50;66.00;;;;;;5093083;28;20201;-73
2022/07/30 04:56:37;;;;;;;2.10;1.03;;;19.30;62.80;;;;;;5109555;28;20259;-72
2022/07/30 04:59:05;;;;;;;1.60;0.90;;;18.90;66.60;;;;;;5113422;28;20168;-73
2022/07/30 05:01:36;;;;;;;1.60;0.70;;;19.00;65.20;;;;;;5113410;28;20258;-72
2022/07/30 05:04:06;;;;;;;2.53;0.97;;;19.10;62.60;;;;;;5112506;28;20202;-73
2022/07/30 05:06:34;;;;;;;6.60;1.00;;;19.00;64.80;;;;;;5110230;28;20182;-72
2022/07/30 05:09:02;;;;;;;3.53;1.00;;;19.00;68.80;;;;;;5093034;28;20298;-72
2022/07/30 05:11:30;;;;;;;3.70;1.10;;;19.00;67.00;;;;;;5113151;28;20176;-73
2022/07/30 05:13:57;;;;;;;2.23;1.17;;;18.80;67.90;;;;;;5095006;28;20208;-72
2022/07/30 05:16:24;;;;;;;2.53;0.90;;;18.50;68.60;;;;;;5111207;28;20206;-72
2022/07/30 05:18:52;;;;;;;4.27;1.37;;;18.60;70.40;;;;;;5111566;28;20196;-72
2022/07/30 05:21:19;;;;;;;5.50;1.20;;;18.60;68.90;;;;;;5088339;28;20182;-72
2022/07/30 05:23:47;;;;;;;3.50;1.37;;;18.40;69.60;;;;;;5110161;28;20649;-72
2022/07/30 05:26:17;;;;;;;4.50;1.13;;;18.10;70.50;;;;;;5094093;28;20228;-71
2022/07/30 05:28:45;;;;;;;1.97;0.73;;;17.90;71.70;;;;;;5104747;28;20189;-72
2022/07/30 05:31:12;;;;;;;1.93;0.67;;;17.70;78.10;;;;;;5092291;28;20773;-72
2022/07/30 05:33:40;;;;;;;5.63;0.97;;;17.90;82.90;;;;;;5092254;28;20194;-72
2022/07/30 05:36:07;;;;;;;1.77;0.90;;;17.80;79.30;;;;;;5092159;28;20312;-72
2022/07/30 05:38:35;;;;;;;2.93;1.13;;;17.60;79.80;;;;;;5092003;28;20190;-70
2022/07/30 05:41:02;;;;;;;4.03;1.20;;;17.60;86.00;;;;;;5091867;28;20265;-70
2022/07/30 05:43:30;;;;;;;2.27;1.17;;;17.50;86.60;;;;;;5091853;28;20183;-71
2022/07/30 05:45:57;;;;;;;1.47;0.67;;;17.30;91.10;;;;;;5092138;28;20777;-70
2022/07/30 05:48:25;;;;;;;1.37;0.80;;;17.00;91.30;;;;;;5073524;28;20210;-70
2022/07/30 05:50:53;;;;;;;2.13;1.30;;;16.60;94.00;;;;;;5091915;28;20182;-70
2022/07/30 05:53:20;;;;;;;4.17;1.03;;;16.40;96.10;;;;;;5095535;28;20175;-70
2022/07/30 05:55:47;;;;;;;1.63;1.10;;;16.20;99.40;;;;;;5109348;28;20178;-69
2022/07/30 05:58:15;;;;;;;3.63;1.10;;;16.10;99.90;;;;;;5098145;28;20214;-71
2022/07/30 06:00:42;;;;;;;4.10;1.30;;;16.20;99.90;;;;;;5091606;28;20588;-70
2022/07/30 06:03:10;;;;;;;3.83;1.40;;;16.10;99.90;;;;;;5092811;28;20191;-70
2022/07/30 06:05:37;;;;;;;5.13;1.03;;;16.00;99.90;;;;;;5108889;27;20307;-72
2022/07/30 06:08:04;;;;;;;3.77;1.37;;;16.00;99.90;;;;;;5102391;28;20185;-71
2022/07/30 06:10:32;;;;;;;2.03;0.90;;;15.90;99.90;;;;;;5091652;28;20191;-71
2022/07/30 06:13:00;;;;;;;6.23;2.00;;;16.00;99.90;;;;;;5082502;28;20185;-69
2022/07/30 06:15:27;;;;;;;5.13;2.40;;;15.80;99.90;;;;;;5093349;28;20201;-70
2022/07/30 06:17:55;;;;;;;5.97;3.07;;;15.70;99.90;;;;;;5107354;28;20218;-70
2022/07/30 06:20:22;;;;;;;5.30;1.80;;;15.70;99.90;;;;;;5109888;28;20191;-70
2022/07/30 06:22:49;;;;;;;1.73;1.07;;;15.60;99.90;;;;;;5099261;28;20187;-71
2022/07/30 06:25:17;;;;;;;3.23;1.47;;;15.60;99.90;;;;;;5091296;28;20573;-70
2022/07/30 06:27:44;;;;;;;3.07;1.40;;;15.40;99.90;;;;;;5091595;28;20182;-71
2022/07/30 06:30:12;;;;;;;5.27;1.57;;;15.30;99.90;;;;;;5091466;28;20185;-71
2022/07/30 06:32:39;;;;;;;4.57;1.40;;;15.30;99.90;;;;;;5094051;28;20720;-71
2022/07/30 06:35:07;;;;;;;4.43;1.30;;;15.30;99.90;;;;;;5091376;28;20179;-72
2022/07/30 06:37:34;;;;;;;17.10;7.23;;;15.30;99.90;;;;;;5091498;28;20306;-72
2022/07/30 06:40:02;;;;;;;9.93;4.50;;;15.20;99.90;;;;;;5091349;28;20175;-74
2022/07/30 06:42:29;;;;;;;3.80;1.97;;;15.10;99.90;;;;;;5091348;28;20699;-70
2022/07/30 06:44:57;;;;;;;6.70;2.20;;;15.10;99.90;;;;;;5091290;28;20186;-72
2022/07/30 06:47:30;;;;;;;5.70;1.93;;;15.10;99.90;;;;;;5091212;28;20296;-70
2022/07/30 06:49:57;;;;;;;3.03;1.70;;;15.00;99.90;;;;;;5091318;28;20200;-71
2022/07/30 06:52:25;;;;;;;16.00;7.47;;;14.90;99.90;;;;;;5094711;28;20185;-72
2022/07/30 06:54:52;;;;;;;5.97;3.33;;;14.80;99.90;;;;;;5111341;28;20235;-71
2022/07/30 06:57:20;;;;;;;12.17;2.67;;;14.80;99.90;;;;;;5102320;28;20210;-71
2022/07/30 06:59:47;;;;;;;7.73;2.10;;;14.80;99.90;;;;;;5109815;28;20221;-70
2022/07/30 07:02:15;;;;;;;2.37;1.50;;;14.70;99.90;;;;;;5101963;28;20192;-71
2022/07/30 07:04:42;;;;;;;3.33;1.40;;;14.60;99.90;;;;;;5110939;28;20302;-72
2022/07/30 07:07:09;;;;;;;4.93;1.90;;;14.40;99.90;;;;;;5093192;28;20197;-71
2022/07/30 07:09:37;;;;;;;5.23;1.47;;;14.20;99.90;;;;;;5094781;28;20252;-71
2022/07/30 07:12:04;;;;;;;6.20;1.67;;;14.10;99.90;;;;;;5087488;28;20571;-71
2022/07/30 07:14:32;;;;;;;4.20;2.03;;;14.00;99.90;;;;;;5115013;28;20220;-70
2022/07/30 07:17:00;;;;;;;7.67;2.10;;;13.90;99.90;;;;;;5113554;28;20255;-71
2022/07/30 07:19:27;;;;;;;7.00;2.10;;;13.70;99.90;;;;;;5114842;28;20219;-72
2022/07/30 07:21:55;;;;;;;10.33;2.80;;;13.60;99.90;;;;;;5104968;28;20190;-73
2022/07/30 07:24:22;;;;;;;8.97;2.30;;;13.50;99.90;;;;;;5106545;28;20182;-72
2022/07/30 07:26:49;;;;;;;5.43;2.13;;;13.40;99.90;;;;;;5109604;28;20185;-72
2022/07/30 07:29:17;;;;;;;3.90;2.00;;;13.30;99.90;;;;;;5096850;28;20187;-73
2022/07/30 07:31:44;;;;;;;8.53;2.40;;;13.20;99.90;;;;;;5105642;28;20228;-72
2022/07/30 07:34:11;;;;;;;4.60;2.13;;;13.10;99.90;;;;;;5094607;28;20187;-72
2022/07/30 07:36:39;;;;;;;4.93;2.03;;;13.00;99.90;;;;;;5103590;28;20217;-72
2022/07/30 07:39:09;;;;;;;6.87;2.17;;;13.00;99.90;;;;;;5115027;28;20177;-71
2022/07/30 07:41:37;;;;;;;14.67;2.50;;;12.90;99.90;;;;;;5101862;28;20190;-72
2022/07/30 07:44:05;;;;;;;10.53;2.67;;;12.90;99.90;;;;;;5094223;28;20213;-72
2022/07/30 07:46:32;;;;;;;12.40;2.43;;;12.90;99.90;;;;;;5094455;28;20178;-72
2022/07/30 07:49:00;;;;;;;8.57;2.17;;;12.80;99.90;;;;;;5094395;28;20186;-73
2022/07/30 07:51:27;;;;;;;4.83;2.20;;;12.70;99.90;;;;;;5100352;28;20182;-72
2022/07/30 07:53:55;;;;;;;4.47;2.53;;;12.70;99.90;;;;;;5114788;28;20275;-72
2022/07/30 07:56:23;;;;;;;3.87;2.10;;;12.60;99.90;;;;;;5114007;28;20223;-73
2022/07/30 07:58:52;;;;;;;2.87;1.83;;;12.50;99.90;;;;;;5096181;28;20188;-72
2022/07/30 08:01:21;;;;;;;3.13;1.90;;;12.40;99.90;;;;;;5111489;28;20639;-73
2022/07/30 08:03:48;;;;;;;6.87;2.53;;;12.30;99.90;;;;;;5095301;28;20187;-73
2022/07/30 08:06:15;;;;;;;5.57;2.40;;;12.30;99.90;;;;;;5077461;28;20280;-75
2022/07/30 08:08:43;;;;;;;9.30;2.50;;;12.10;99.90;;;;;;5115822;28;20195;-74
2022/07/30 08:11:10;;;;;;;3.73;2.20;;;12.00;99.90;;;;;;5115813;28;20658;-73
2022/07/30 08:13:37;;;;;;;4.07;2.60;;;11.90;99.90;;;;;;5113858;28;20194;-73
2022/07/30 08:16:08;;;;;;;5.77;2.53;;;11.80;99.90;;;;;;5096945;28;20183;-73
2022/07/30 08:18:36;;;;;;;3.40;2.40;;;11.70;99.90;;;;;;5115821;28;20239;-72
2022/07/30 08:21:04;;;;;;;5.00;2.77;;;11.50;99.90;;;;;;5115158;28;20183;-72
2022/07/30 08:23:32;;;;;;;6.27;3.00;;;11.40;99.90;;;;;;5103237;28;20184;-72
2022/07/30 08:25:59;;;;;;;5.83;3.40;;;11.30;99.90;;;;;;5105602;28;20182;-73
2022/07/30 08:28:27;;;;;;;7.80;3.13;;;11.20;99.90;;;;;;5105278;28;20176;-73
2022/07/30 08:30:54;;;;;;;6.07;3.20;;;11.10;99.90;;;;;;5103820;28;20240;-73
2022/07/30 08:33:21;;;;;;;7.73;3.33;;;11.00;99.90;;;;;;5105124;28;20232;-72
2022/07/30 08:35:49;;;;;;;6.20;3.57;;;11.00;99.90;;;;;;5105503;28;20184;-72
2022/07/30 08:38:16;;;;;;;6.53;3.30;;;10.80;99.90;;;;;;5106492;28;20327;-73
2022/07/30 08:40:43;;;;;;;7.13;3.30;;;10.80;99.90;;;;;;5115520;28;20172;-73
2022/07/30 08:43:11;;;;;;;5.53;3.27;;;10.70;99.90;;;;;;5115523;28;20172;-73
2022/07/30 08:45:39;;;;;;;7.03;3.87;;;10.70;99.90;;;;;;5096874;28;20226;-73
2022/07/30 08:48:13;;;;;;;7.27;3.60;;;10.60;99.90;;;;;;5115388;28;20577;-73
2022/07/30 08:50:40;;;;;;;6.23;3.93;;;10.50;99.90;;;;;;5115362;28;20779;-73
2022/07/30 08:53:08;;;;;;;14.23;5.93;;;10.50;99.90;;;;;;5096676;28;20547;-73
2022/07/30 08:55:35;;;;;;;11.40;6.30;;;10.50;99.90;;;;;;5096651;28;20530;-73
2022/07/30 08:58:05;;;;;;;12.03;5.37;;;10.40;99.90;;;;;;5114990;28;20257;-73
2022/07/30 09:00:32;;;;;;;17.50;9.23;;;10.30;99.90;;;;;;5109423;28;20672;-73
2022/07/30 09:03:01;;;;;;;23.80;13.57;;;10.30;99.90;;;;;;5105094;28;20305;-73
2022/07/30 09:05:28;;;;;;;11.70;7.20;;;10.20;99.90;;;;;;5112967;28;20262;-73
2022/07/30 09:07:56;;;;;;;9.33;5.47;;;10.10;99.90;;;;;;5114798;28;20187;-73
2022/07/30 09:10:24;;;;;;;10.47;5.20;;;10.00;99.90;;;;;;5096463;28;20665;-73
2022/07/30 09:12:51;;;;;;;15.50;6.17;;;9.90;99.90;;;;;;5114725;28;20706;-72
2022/07/30 09:15:21;;;;;;;9.63;5.70;;;9.90;99.90;;;;;;5114857;28;20171;-73
2022/07/30 09:18:00;;;;;;;9.90;5.00;;;9.80;99.90;;;;;;5114619;28;20222;-73
2022/07/30 09:20:35;;;;;;;7.33;4.60;;;9.80;99.90;;;;;;5096435;28;20665;-73
2022/07/30 09:23:05;;;;;;;11.40;5.47;;;9.80;99.90;;;;;;5114668;28;20171;-73
2022/07/30 09:25:42;;;;;;;14.27;5.57;;;9.70;99.90;;;;;;5114737;28;20206;-71
2022/07/30 09:28:11;;;;;;;11.40;5.40;;;9.60;99.90;;;;;;5094336;28;20181;-72
2022/07/30 09:30:51;;;;;;;12.70;5.20;;;9.50;99.90;;;;;;5095989;28;20180;-71
2022/07/30 09:33:35;;;;;;;11.73;5.73;;;9.50;99.90;;;;;;5073187;28;20606;-73
2022/07/30 09:36:03;;;;;;;9.10;5.27;;;9.40;99.90;;;;;;5073549;28;20776;-73
2022/07/30 09:38:50;;;;;;;8.53;5.50;;;9.30;99.90;;;;;;5072429;28;20212;-72
2022/07/30 09:41:40;;;;;;;8.07;4.97;;;9.30;99.90;;;;;;5073637;28;20315;-72
2022/07/30 09:44:08;;;;;;;12.40;5.70;;;9.20;99.90;;;;;;5107542;28;20198;-73
2022/07/30 09:46:46;;;;;;;7.13;5.03;;;9.20;99.90;;;;;;5112289;28;20190;-72
2022/07/30 09:49:27;;;;;;;14.20;6.57;;;9.10;99.90;;;;;;5114015;28;20168;-72
2022/07/30 09:51:55;;;;;;;12.50;7.10;;;9.10;99.90;;;;;;5114039;28;20215;-73
2022/07/30 09:54:23;;;;;;;12.10;7.03;;;9.00;99.90;;;;;;5095063;28;20187;-73
2022/07/30 09:57:06;;;;;;;11.20;7.77;;;9.10;99.90;;;;;;5093448;28;20292;-73
2022/07/30 09:59:33;;;;;;;10.87;7.67;;;9.30;99.90;;;;;;5093497;28;20534;-74
2022/07/30 10:02:01;;;;;;;15.73;8.37;;;9.40;99.90;;;;;;5093555;28;20538;-72
2022/07/30 10:04:30;;;;;;;12.97;7.03;;;9.60;99.90;;;;;;5094452;28;20562;-72
2022/07/30 10:06:59;;;;;;;15.53;6.93;;;9.80;99.90;;;;;;5093563;28;20183;-72
2022/07/30 10:09:26;;;;;;;13.13;8.00;;;10.00;99.90;;;;;;5093249;28;20173;-73
2022/07/30 10:11:57;;;;;;;19.00;10.77;;;10.10;99.90;;;;;;5093347;28;20178;-72
2022/07/30 10:14:28;;;;;;;16.00;10.33;;;10.10;99.90;;;;;;5093654;28;20173;-73
2022/07/30 10:16:57;;;;;;;18.07;8.50;;;10.10;99.90;;;;;;5093478;28;20259;-72
2022/07/30 10:19:25;;;;;;;16.80;9.63;;;10.00;99.90;;;;;;5096149;28;20175;-72
2022/07/30 10:21:56;;;;;;;17.13;8.07;;;10.00;99.90;;;;;;5114204;28;20211;-72
2022/07/30 10:24:25;;;;;;;15.17;8.73;;;10.00;99.90;;;;;;5098695;28;20256;-73
2022/07/30 10:26:55;;;;;;;14.40;7.97;;;9.90;99.90;;;;;;5095645;28;20184;-71
2022/07/30 10:29:23;;;;;;;13.00;7.17;;;9.80;99.90;;;;;;5093008;28;20232;-74
2022/07/30 10:31:51;;;;;;;13.20;7.63;;;9.80;99.90;;;;;;5094221;28;20257;-72
2022/07/30 10:34:20;;;;;;;11.30;7.53;;;9.70;99.90;;;;;;5101939;28;20170;-71
2022/07/30 10:36:51;;;;;;;15.97;7.33;;;9.60;99.90;;;;;;5098293;28;20219;-73
2022/07/30 10:39:26;;;;;;;16.53;8.27;;;9.50;99.90;;;;;;5103471;28;20191;-71
2022/07/30 10:42:08;;;;;;;13.67;7.73;;;9.40;99.90;;;;;;5097490;28;20174;-73
2022/07/30 10:44:43;;;;;;;13.33;7.40;;;9.30;99.90;;;;;;5100484;28;20191;-73
2022/07/30 10:47:13;;;;;;;14.33;7.67;;;9.30;99.90;;;;;;5105718;28;20172;-72
2022/07/30 10:49:40;;;;;;;14.53;8.83;;;9.20;99.90;;;;;;5106491;28;20178;-71
2022/07/30 10:52:08;;;;;;;18.00;7.93;;;9.10;99.90;;;;;;5107765;28;20668;-72
2022/07/30 10:54:46;;;;;;;14.43;7.87;;;9.00;99.90;;;;;;5106274;28;20182;-73
2022/07/30 10:57:21;;;;;;;14.57;8.13;;;9.10;99.90;;;;;;5087906;28;20295;-73
2022/07/30 11:00:08;;;;;;;12.73;8.10;;;9.00;99.90;;;;;;5087329;28;20182;-73
2022/07/30 11:02:36;;;;;;;15.00;8.10;;;8.90;99.90;;;;;;5088123;28;20175;-73
2022/07/30 11:05:18;;;;;;;21.23;8.53;;;8.80;99.90;;;;;;5105671;28;20184;-72
2022/07/30 11:07:46;;;;;;;14.80;8.97;;;8.70;99.90;;;;;;5107215;28;20185;-72
2022/07/30 11:10:35;;;;;;;16.67;8.60;;;8.60;99.90;;;;;;5103337;28;20179;-73
2022/07/30 11:13:03;;;;;;;15.13;8.47;;;8.50;99.90;;;;;;5105822;28;20164;-72
2022/07/30 11:15:58;;;;;;;16.70;7.93;;;8.40;99.90;;;;;;5105201;28;20175;-71
2022/07/30 11:18:27;;;;;;;12.90;7.57;;;8.30;99.90;;;;;;5104211;28;20212;-71
2022/07/30 11:21:17;;;;;;;18.83;7.33;;;8.30;99.90;;;;;;5103307;28;20262;-72
2022/07/30 11:23:45;;;;;;;14.63;8.90;;;8.20;99.90;;;;;;5088520;28;20620;-72
2022/07/30 11:26:45;;;;;;;13.50;7.67;;;8.10;99.90;;;;;;5102690;28;20179;-72
2022/07/30 11:29:40;;;;;;;15.70;8.40;;;8.00;99.90;;;;;;5106981;28;20178;-72
2022/07/30 11:32:37;;;;;;;15.57;9.90;;;8.00;99.90;;;;;;5106409;28;20215;-73
2022/07/30 11:35:26;;;;;;;15.03;10.17;;;8.00;99.90;;;;;;5077353;28;20187;-72
2022/07/30 11:38:10;;;;;;;23.70;11.43;;;8.00;99.90;;;;;;5106746;28;20203;-72
2022/07/30 11:40:47;;;;;;;16.40;11.13;;;7.90;99.90;;;;;;5103999;28;20167;-72
2022/07/30 11:43:17;;;;;;;18.43;9.70;;;7.80;99.90;;;;;;5102797;28;20304;-72
2022/07/30 11:45:51;;;;;;;17.67;10.60;;;7.80;99.90;;;;;;5104982;28;20261;-72
2022/07/30 11:48:20;;;;;;;28.17;17.33;;;7.70;99.90;;;;;;5103902;28;20168;-72
2022/07/30 11:50:48;;;;;;;29.43;17.23;;;7.70;99.90;;;;;;5104675;28;20665;-71
2022/07/30 11:53:20;;;;;;;30.83;18.57;;;7.70;99.90;;;;;;5106203;28;20180;-72
2022/07/30 11:55:58;;;;;;;26.30;19.33;;;7.80;99.90;;;;;;5085977;28;20192;-73
2022/07/30 11:58:38;;;;;;;28.77;17.73;;;7.70;99.90;;;;;;5103968;28;20212;-72
2022/07/30 12:01:14;;;;;;;21.90;14.43;;;7.70;99.90;;;;;;5105534;28;20175;-73
2022/07/30 12:03:43;;;;;;;23.33;11.33;;;7.60;99.90;;;;;;5085689;28;20227;-72
2022/07/30 12:06:18;;;;;;;16.80;11.20;;;7.60;99.90;;;;;;5104229;28;20226;-72
2022/07/30 12:08:48;;;;;;;20.70;12.00;;;7.50;99.90;;;;;;5104517;28;20652;-71
2022/07/30 12:11:16;;;;;;;21.43;12.23;;;7.50;99.90;;;;;;5102599;28;20186;-72
2022/07/30 12:13:54;;;;;;;23.50;11.33;;;7.40;99.90;;;;;;5104443;28;20299;-72
2022/07/30 12:16:21;;;;;;;20.90;11.40;;;7.40;99.90;;;;;;5103998;28;20627;-72
2022/07/30 12:18:49;;;;;;;20.20;11.67;;;7.40;99.90;;;;;;5085726;28;20183;-71
2022/07/30 12:21:17;;;;;;;21.57;12.33;;;7.40;99.90;;;;;;5105461;28;20254;-71
2022/07/30 12:24:09;;;;;;;25.03;12.10;;;7.30;99.90;;;;;;5105548;28;20583;-72
2022/07/30 12:26:36;;;;;;;20.83;11.60;;;7.30;99.90;;;;;;5102533;28;20218;-71
2022/07/30 12:29:14;;;;;;;34.57;11.73;;;7.30;99.90;;;;;;5104138;28;20183;-71
2022/07/30 12:31:44;;;;;;;20.60;11.03;;;7.20;99.90;;;;;;5103520;28;20219;-74
2022/07/30 12:34:25;;;;;;;17.43;10.40;;;7.20;99.90;;;;;;5103597;28;20182;-72
2022/07/30 12:36:53;;;;;;;18.93;10.40;;;7.20;99.90;;;;;;5100947;28;20195;-71
2022/07/30 12:39:26;;;;;;;19.70;10.10;;;7.10;99.90;;;;;;5104523;28;20552;-71
2022/07/30 12:41:57;;;;;;;20.23;10.60;;;7.10;99.90;;;;;;5101188;28;20174;-72
2022/07/30 12:44:38;;;;;;;18.43;9.63;;;7.10;99.90;;;;;;5085557;28;20183;-72
2022/07/30 12:47:17;;;;;;;13.83;9.10;;;7.00;99.90;;;;;;5104377;28;20172;-71
2022/07/30 12:49:45;;;;;;;19.43;10.00;;;7.00;99.90;;;;;;5086204;28;20221;-71
2022/07/30 12:52:24;;;;;;;15.80;9.80;;;7.00;99.90;;;;;;5100837;28;20571;-71
2022/07/30 12:55:10;;;;;;;16.93;11.10;;;7.00;99.90;;;;;;5103205;28;20197;-72
2022/07/30 12:57:54;;;;;;;18.27;10.60;;;7.10;99.90;;;;;;5095539;28;20206;-74
2022/07/30 13:00:23;;;;;;;18.10;10.17;;;7.00;99.90;;;;;;5094569;28;20201;-72
2022/07/30 13:02:51;;;;;;;17.23;10.93;;;7.00;99.90;;;;;;5094590;28;20190;-72